createdAt,value
2022-08-17T00:02:25.165Z,16.80
2022-08-17T00:04:54.763Z,16.74
2022-08-17T00:07:22.361Z,16.72
2022-08-17T00:09:49.410Z,16.48
2022-08-17T00:12:43.565Z,16.18
2022-08-17T00:15:06.174Z,16.02
2022-08-17T00:17:35.829Z,15.92
2022-08-17T00:20:04.820Z,15.96
2022-08-17T00:22:36.463Z,15.81
2022-08-17T00:25:16.961Z,15.93
2022-08-17T00:27:44.003Z,16.20
2022-08-17T00:30:12.635Z,16.22
2022-08-17T00:33:11.902Z,16.13
2022-08-17T00:35:33.869Z,16.15
2022-08-17T00:38:00.825Z,15.97
2022-08-17T00:40:40.739Z,16.07
2022-08-17T00:43:19.496Z,16.03
2022-08-17T00:45:47.447Z,15.96
2022-08-17T00:48:29.661Z,16.18
2022-08-17T00:51:09.383Z,15.97
2022-08-17T00:53:45.965Z,15.91
2022-08-17T00:56:21.115Z,15.84
2022-08-17T00:58:52.291Z,15.84
2022-08-17T01:01:22.001Z,15.89
2022-08-17T01:03:52.548Z,16.10
2022-08-17T01:06:24.601Z,16.29
2022-08-17T01:08:57.283Z,16.43
2022-08-17T01:11:25.645Z,16.42
2022-08-17T01:13:52.813Z,16.37
2022-08-17T01:16:26.535Z,16.30
2022-08-17T01:19:02.820Z,16.25
2022-08-17T01:21:34.363Z,16.18
2022-08-17T01:24:02.401Z,15.90
2022-08-17T01:26:32.935Z,15.67
2022-08-17T01:29:02.346Z,15.48
2022-08-17T01:31:41.535Z,15.25
2022-08-17T01:34:11.159Z,15.40
2022-08-17T01:36:41.013Z,15.49
2022-08-17T01:39:27.028Z,15.50
2022-08-17T01:41:58.711Z,15.52
2022-08-17T01:44:26.838Z,15.51
2022-08-17T01:46:55.056Z,15.46
2022-08-17T01:49:23.221Z,15.51
2022-08-17T01:51:50.444Z,15.46
2022-08-17T01:54:19.616Z,15.47
2022-08-17T01:56:49.612Z,15.55
2022-08-17T01:59:18.933Z,15.52
2022-08-17T02:01:47.050Z,15.69
2022-08-17T02:04:14.913Z,15.60
2022-08-17T02:06:54.125Z,15.74
2022-08-17T02:09:29.957Z,15.66
2022-08-17T02:11:59.731Z,15.56
2022-08-17T02:14:27.582Z,15.30
2022-08-17T02:16:54.715Z,15.04
2022-08-17T02:19:22.284Z,14.81
2022-08-17T02:21:52.946Z,14.67
2022-08-17T02:25:00.094Z,14.59
2022-08-17T02:27:15.081Z,14.47
2022-08-17T02:29:42.128Z,14.41
2022-08-17T02:32:27.229Z,14.40
2022-08-17T02:34:59.635Z,14.49
2022-08-17T02:37:28.441Z,14.59
2022-08-17T02:39:57.145Z,14.72
2022-08-17T02:42:36.473Z,14.67
2022-08-17T02:45:08.963Z,14.94
2022-08-17T02:47:36.692Z,15.03
2022-08-17T02:50:06.242Z,15.01
2022-08-17T02:52:43.079Z,14.95
2022-08-17T02:55:20.563Z,14.93
2022-08-17T02:57:48.322Z,15.11
2022-08-17T03:00:29.608Z,15.10
2022-08-17T03:02:57.545Z,14.91
2022-08-17T03:05:28.062Z,14.53
2022-08-17T03:07:55.127Z,14.37
2022-08-17T03:10:24.620Z,14.17
2022-08-17T03:12:52.973Z,14.05
2022-08-17T03:15:31.467Z,13.93
2022-08-17T03:17:59.664Z,13.94
2022-08-17T03:20:29.031Z,13.88
2022-08-17T03:23:02.781Z,13.87
2022-08-17T03:25:44.003Z,13.93
2022-08-17T03:28:14.468Z,14.04
2022-08-17T03:30:41.811Z,14.01
2022-08-17T03:33:12.606Z,14.05
2022-08-17T03:35:41.038Z,14.02
2022-08-17T03:38:10.708Z,14.09
2022-08-17T03:40:56.568Z,14.14
2022-08-17T03:43:30.436Z,14.44
2022-08-17T03:46:27.963Z,14.48
2022-08-17T03:49:23.687Z,14.42
2022-08-17T03:52:09.085Z,14.57
2022-08-17T03:54:54.458Z,14.61
2022-08-17T03:57:21.620Z,14.51
2022-08-17T03:59:49.502Z,14.48
2022-08-17T04:02:24.981Z,14.52
2022-08-17T04:04:52.618Z,14.45
2022-08-17T04:07:25.996Z,14.44
2022-08-17T04:09:53.222Z,14.44
2022-08-17T04:12:23.166Z,14.26
2022-08-17T04:14:53.347Z,14.15
2022-08-17T04:17:27.993Z,14.14
2022-08-17T04:19:55.844Z,14.05
2022-08-17T04:22:33.343Z,14.22
2022-08-17T04:25:17.227Z,14.55
2022-08-17T04:27:44.421Z,14.63
2022-08-17T04:30:12.387Z,14.57
2022-08-17T04:33:08.717Z,14.58
2022-08-17T04:35:43.444Z,14.37
2022-08-17T04:38:15.161Z,14.55
2022-08-17T04:41:01.713Z,14.43
2022-08-17T04:43:31.015Z,14.69
2022-08-17T04:46:10.457Z,14.89
2022-08-17T04:48:46.841Z,15.08
2022-08-17T04:51:20.928Z,15.04
2022-08-17T04:53:54.910Z,14.96
2022-08-17T04:56:25.816Z,15.01
2022-08-17T04:58:56.978Z,15.04
2022-08-17T05:01:28.057Z,14.88
2022-08-17T05:04:01.891Z,14.66
2022-08-17T05:06:49.820Z,14.86
2022-08-17T05:09:17.862Z,15.20
2022-08-17T05:11:46.610Z,15.55
2022-08-17T05:14:14.158Z,15.75
2022-08-17T05:16:41.348Z,16.21
2022-08-17T05:19:08.355Z,17.07
2022-08-17T05:21:35.363Z,17.66
2022-08-17T05:24:03.706Z,18.59
2022-08-17T05:26:36.691Z,19.12
2022-08-17T05:29:05.273Z,19.75
2022-08-17T05:31:32.261Z,19.51
2022-08-17T05:33:59.650Z,19.71
2022-08-17T05:36:38.026Z,20.29
2022-08-17T05:39:15.942Z,20.76
2022-08-17T05:41:46.299Z,20.61
2022-08-17T05:44:13.782Z,20.99
2022-08-17T05:46:43.954Z,21.53
2022-08-17T05:49:12.665Z,21.43
2022-08-17T05:52:24.850Z,22.27
2022-08-17T05:55:06.602Z,23.67
2022-08-17T05:57:56.081Z,24.53
2022-08-17T06:00:33.256Z,23.48
2022-08-17T06:03:19.805Z,24.72
2022-08-17T06:06:31.212Z,25.21
2022-08-17T06:09:33.872Z,26.42
2022-08-17T06:12:40.975Z,26.86
2022-08-17T06:15:35.692Z,27.70
2022-08-17T06:18:06.104Z,27.09
2022-08-17T06:20:51.599Z,28.18
2022-08-17T06:23:48.201Z,28.55
2022-08-17T06:26:21.492Z,29.22
2022-08-17T06:29:19.794Z,27.95
2022-08-17T06:31:47.266Z,25.88
2022-08-17T06:34:15.573Z,24.77
2022-08-17T06:37:10.242Z,25.18
2022-08-17T06:39:58.555Z,25.77
2022-08-17T06:43:02.111Z,26.96
2022-08-17T06:46:02.414Z,27.23
2022-08-17T06:48:38.238Z,28.04
2022-08-17T06:51:18.395Z,29.38
2022-08-17T06:54:05.403Z,27.97
2022-08-17T06:56:52.970Z,26.20
2022-08-17T06:59:34.824Z,26.85
2022-08-17T07:02:51.253Z,26.31
2022-08-17T07:05:23.382Z,25.86
2022-08-17T07:08:04.919Z,27.23
2022-08-17T07:10:43.059Z,29.03
2022-08-17T07:13:51.209Z,29.54
2022-08-17T07:16:32.427Z,30.11
2022-08-17T07:18:59.943Z,29.90
2022-08-17T07:21:47.608Z,30.67
2022-08-17T07:24:58.243Z,31.20
2022-08-17T07:27:30.982Z,31.39
2022-08-17T07:30:11.005Z,31.58
2022-08-17T07:32:59.082Z,30.99
2022-08-17T07:35:31.075Z,30.74
2022-08-17T07:38:24.691Z,31.05
2022-08-17T07:41:02.109Z,31.40
2022-08-17T07:43:41.058Z,31.86
2022-08-17T07:46:50.494Z,32.44
2022-08-17T07:49:34.300Z,32.54
2022-08-17T07:52:48.276Z,31.65
2022-08-17T07:55:42.919Z,31.52
2022-08-17T07:58:17.419Z,32.55
2022-08-17T08:00:45.538Z,32.64
2022-08-17T08:03:31.862Z,32.83
2022-08-17T08:06:02.022Z,33.24
2022-08-17T08:08:42.337Z,34.31
2022-08-17T08:11:12.540Z,34.30
2022-08-17T08:13:43.757Z,32.56
2022-08-17T08:16:17.149Z,32.46
2022-08-17T08:18:54.498Z,33.39
2022-08-17T08:21:36.906Z,31.62
2022-08-17T08:24:18.782Z,31.57
2022-08-17T08:26:57.047Z,31.59
2022-08-17T08:29:40.885Z,32.03
2022-08-17T08:32:31.890Z,31.82
2022-08-17T08:35:26.717Z,31.70
2022-08-17T08:38:25.490Z,30.99
2022-08-17T08:41:16.507Z,30.52
2022-08-17T08:45:01.248Z,29.56
2022-08-17T08:47:48.464Z,29.08
2022-08-17T08:50:40.287Z,28.57
2022-08-17T08:53:52.014Z,28.26
2022-08-17T08:57:11.504Z,27.84
2022-08-17T09:00:07.313Z,28.01
2022-08-17T09:03:20.699Z,28.04
2022-08-17T09:06:38.686Z,28.36
2022-08-17T09:09:40.764Z,28.43
2022-08-17T09:12:57.576Z,28.06
2022-08-17T09:15:35.169Z,27.61
2022-08-17T09:19:02.431Z,27.59
2022-08-17T09:21:49.939Z,27.82
2022-08-17T09:24:36.501Z,27.59
2022-08-17T09:27:21.430Z,27.57
2022-08-17T09:29:55.020Z,27.61
2022-08-17T09:32:33.123Z,27.69
2022-08-17T09:35:19.919Z,27.98
2022-08-17T09:38:18.174Z,28.03
2022-08-17T09:41:30.309Z,27.95
2022-08-17T09:44:24.090Z,27.99
2022-08-17T09:47:12.657Z,27.90
2022-08-17T09:49:50.794Z,27.96
2022-08-17T09:52:23.454Z,27.86
2022-08-17T09:54:52.866Z,27.63
2022-08-17T09:58:09.256Z,27.54
2022-08-17T10:00:41.450Z,27.58
2022-08-17T10:03:21.048Z,27.86
2022-08-17T10:06:09.577Z,28.15
2022-08-17T10:09:07.326Z,27.89
2022-08-17T10:12:15.676Z,27.86
2022-08-17T10:15:08.209Z,27.32
2022-08-17T10:18:08.743Z,27.49
2022-08-17T10:25:48.636Z,27.47
2022-08-17T10:28:25.835Z,27.73
2022-08-17T10:34:14.396Z,27.90
2022-08-17T10:36:59.146Z,28.07
2022-08-17T10:39:57.316Z,28.25
2022-08-17T10:42:37.868Z,27.86
2022-08-17T10:45:23.435Z,27.60
2022-08-17T10:48:06.228Z,27.54
2022-08-17T10:50:57.642Z,27.55
2022-08-17T10:53:33.434Z,27.70
2022-08-17T10:56:12.483Z,27.81
2022-08-17T10:58:58.186Z,27.73
2022-08-17T11:01:34.355Z,27.35
2022-08-17T11:04:21.227Z,27.05
2022-08-17T11:07:02.002Z,27.10
2022-08-17T11:09:36.045Z,27.15
2022-08-17T11:12:57.011Z,27.32
2022-08-17T11:15:47.377Z,27.27
2022-08-17T11:18:35.746Z,27.30
2022-08-17T11:21:50.317Z,27.43
2022-08-17T11:24:38.157Z,27.43
2022-08-17T11:27:14.103Z,27.66
2022-08-17T11:30:01.892Z,27.57
2022-08-17T11:32:54.468Z,27.32
2022-08-17T11:35:26.873Z,27.03
2022-08-17T11:38:36.100Z,26.93
2022-08-17T11:41:31.684Z,27.19
2022-08-17T11:44:37.785Z,27.64
2022-08-17T11:48:25.928Z,27.78
2022-08-17T11:51:42.157Z,27.43
2022-08-17T11:54:32.300Z,27.32
2022-08-17T11:57:27.685Z,27.22
2022-08-17T12:00:26.134Z,26.95
2022-08-17T12:03:26.617Z,26.55
2022-08-17T12:06:17.594Z,26.21
2022-08-17T12:08:55.381Z,26.17
2022-08-17T12:12:10.988Z,26.22
2022-08-17T12:15:09.101Z,26.34
2022-08-17T12:17:40.434Z,26.50
2022-08-17T12:20:24.084Z,26.61
2022-08-17T12:23:01.192Z,26.99
2022-08-17T12:25:39.953Z,27.71
2022-08-17T12:28:29.801Z,29.45
2022-08-17T12:31:03.946Z,30.88
2022-08-17T12:33:31.581Z,32.13
2022-08-17T12:36:06.308Z,32.83
2022-08-17T12:38:36.540Z,33.00
2022-08-17T12:41:28.274Z,32.94
2022-08-17T12:44:13.368Z,31.36
2022-08-17T12:46:55.410Z,30.65
2022-08-17T12:49:42.431Z,30.33
2022-08-17T12:52:26.650Z,30.17
2022-08-17T12:55:07.426Z,29.94
2022-08-17T12:57:48.696Z,29.85
2022-08-17T13:00:26.032Z,29.72
2022-08-17T13:03:02.374Z,29.62
2022-08-17T13:06:09.458Z,29.97
2022-08-17T13:08:43.330Z,29.82
2022-08-17T13:11:18.576Z,30.39
2022-08-17T13:13:56.396Z,30.91
2022-08-17T13:16:30.941Z,31.77
2022-08-17T13:19:15.003Z,32.48
2022-08-17T13:21:56.280Z,30.88
2022-08-17T13:24:29.165Z,31.10
2022-08-17T13:27:10.375Z,31.31
2022-08-17T13:29:39.841Z,30.60
2022-08-17T13:32:13.566Z,30.85
2022-08-17T13:35:12.559Z,30.80
2022-08-17T13:38:11.727Z,30.18
2022-08-17T13:40:50.664Z,29.90
2022-08-17T13:43:44.558Z,28.64
2022-08-17T13:46:19.679Z,28.58
2022-08-17T13:49:01.117Z,28.74
2022-08-17T13:51:33.917Z,28.71
2022-08-17T13:54:04.698Z,29.27
2022-08-17T13:56:49.970Z,29.53
2022-08-17T13:59:53.552Z,29.62
2022-08-17T14:02:20.754Z,28.61
2022-08-17T14:04:48.811Z,28.99
2022-08-17T14:07:16.085Z,29.32
2022-08-17T14:10:11.004Z,29.70
2022-08-17T14:12:41.367Z,29.45
2022-08-17T14:15:10.626Z,29.49
2022-08-17T14:17:39.051Z,29.74
2022-08-17T14:20:10.974Z,30.00
2022-08-17T14:22:41.120Z,29.71
2022-08-17T14:25:10.909Z,29.52
2022-08-17T14:27:43.599Z,29.86
2022-08-17T14:30:23.448Z,29.47
2022-08-17T14:32:52.208Z,29.62
2022-08-17T14:35:22.959Z,30.11
2022-08-17T14:37:51.978Z,30.43
2022-08-17T14:40:24.546Z,30.28
2022-08-17T14:42:53.462Z,29.89
2022-08-17T14:45:31.722Z,29.72
2022-08-17T14:48:07.562Z,30.11
2022-08-17T14:50:38.377Z,29.93
2022-08-17T14:53:12.616Z,30.10
2022-08-17T14:55:40.870Z,30.38
2022-08-17T14:58:09.149Z,30.55
2022-08-17T15:00:38.472Z,30.53
2022-08-17T15:03:05.716Z,30.45
2022-08-17T15:05:36.746Z,30.39
2022-08-17T15:08:05.776Z,30.51
2022-08-17T15:10:33.862Z,30.59
2022-08-17T15:13:01.180Z,30.64
2022-08-17T15:15:28.872Z,30.69
2022-08-17T15:17:56.315Z,30.68
2022-08-17T15:20:29.622Z,30.66
2022-08-17T15:22:58.885Z,30.65
2022-08-17T15:25:31.833Z,30.65
2022-08-17T15:28:00.387Z,30.58
2022-08-17T15:30:29.127Z,30.53
2022-08-17T15:32:58.599Z,30.46
2022-08-17T15:35:29.803Z,30.43
2022-08-17T15:38:10.794Z,30.44
2022-08-17T15:40:42.135Z,30.46
2022-08-17T15:43:13.941Z,30.45
2022-08-17T15:45:40.994Z,30.36
2022-08-17T15:48:08.910Z,30.33
2022-08-17T15:50:37.284Z,30.29
2022-08-17T15:53:04.881Z,30.14
2022-08-17T15:55:33.653Z,30.06
2022-08-17T15:58:01.241Z,30.02
2022-08-17T16:00:29.475Z,29.98
2022-08-17T16:03:45.755Z,29.86
2022-08-17T16:05:47.735Z,29.67
2022-08-17T16:08:20.207Z,29.41
2022-08-17T16:10:50.247Z,29.25
2022-08-17T16:13:19.136Z,29.13
2022-08-17T16:15:56.817Z,29.07
2022-08-17T16:18:30.815Z,28.99
2022-08-17T16:21:25.137Z,28.96
2022-08-17T16:23:56.176Z,28.82
2022-08-17T16:26:23.331Z,28.67
2022-08-17T16:28:51.301Z,28.65
2022-08-17T16:31:18.888Z,28.55
2022-08-17T16:34:15.573Z,28.46
2022-08-17T16:36:35.519Z,28.42
2022-08-17T16:39:02.500Z,28.35
2022-08-17T16:41:45.105Z,28.26
2022-08-17T16:44:18.694Z,28.17
2022-08-17T16:46:47.426Z,28.08
2022-08-17T16:49:36.039Z,28.01
2022-08-17T16:52:05.999Z,28.02
2022-08-17T16:54:33.471Z,27.99
2022-08-17T16:57:00.427Z,28.03
2022-08-17T16:59:38.773Z,28.03
2022-08-17T17:02:11.021Z,27.99
2022-08-17T17:04:59.359Z,27.84
2022-08-17T17:07:44.382Z,27.70
2022-08-17T17:10:19.972Z,27.61
2022-08-17T17:13:03.236Z,27.56
2022-08-17T17:16:24.051Z,27.50
2022-08-17T17:19:12.334Z,27.36
2022-08-17T17:21:47.330Z,27.21
2022-08-17T17:24:38.978Z,27.07
2022-08-17T17:28:00.600Z,26.87
2022-08-17T17:30:57.038Z,26.79
2022-08-17T17:33:40.801Z,26.66
2022-08-17T17:36:26.588Z,26.59
2022-08-17T17:39:08.503Z,26.49
2022-08-17T17:41:51.671Z,26.40
2022-08-17T17:44:28.790Z,26.37
2022-08-17T17:47:00.264Z,26.32
2022-08-17T17:49:33.700Z,26.27
2022-08-17T17:52:22.786Z,26.19
2022-08-17T17:55:19.039Z,26.10
2022-08-17T17:58:17.835Z,26.01
2022-08-17T18:00:57.891Z,25.88
2022-08-17T18:04:01.619Z,25.76
2022-08-17T18:07:11.106Z,25.66
2022-08-17T18:10:05.627Z,25.50
2022-08-17T18:13:03.642Z,25.37
2022-08-17T18:15:42.144Z,25.27
2022-08-17T18:18:11.778Z,25.14
2022-08-17T18:20:46.573Z,25.00
2022-08-17T18:23:27.077Z,24.63
2022-08-17T18:25:58.709Z,24.42
2022-08-17T18:28:52.863Z,24.30
2022-08-17T18:31:21.883Z,24.28
2022-08-17T18:33:52.415Z,23.98
2022-08-17T18:36:45.893Z,23.87
2022-08-17T18:39:23.529Z,23.74
2022-08-17T18:41:57.946Z,23.62
2022-08-17T18:44:35.505Z,23.56
2022-08-17T18:47:15.077Z,23.39
2022-08-17T18:50:20.936Z,23.29
2022-08-17T18:52:48.641Z,23.19
2022-08-17T18:55:22.132Z,23.09
2022-08-17T18:58:15.139Z,22.97
2022-08-17T19:00:46.218Z,22.96
2022-08-17T19:03:25.090Z,22.96
2022-08-17T19:06:34.396Z,22.83
2022-08-17T19:09:01.785Z,22.80
2022-08-17T19:11:36.278Z,22.74
2022-08-17T19:14:08.291Z,22.68
2022-08-17T19:16:53.762Z,22.59
2022-08-17T19:19:33.013Z,22.46
2022-08-17T19:22:28.660Z,22.32
2022-08-17T19:25:16.018Z,22.24
2022-08-17T19:27:57.504Z,22.20
2022-08-17T19:30:25.797Z,22.12
2022-08-17T19:32:53.313Z,22.11
2022-08-17T19:35:22.142Z,22.08
2022-08-17T19:38:06.147Z,22.11
2022-08-17T19:41:12.155Z,22.11
2022-08-17T19:43:42.251Z,22.10
2022-08-17T19:46:18.512Z,22.20
2022-08-17T19:49:12.024Z,22.24
2022-08-17T19:51:43.058Z,22.18
2022-08-17T19:54:56.076Z,22.11
2022-08-17T19:57:47.746Z,22.07
2022-08-17T20:00:17.430Z,22.08
2022-08-17T20:03:08.629Z,22.03
2022-08-17T20:06:11.553Z,21.48
2022-08-17T20:08:49.415Z,21.24
2022-08-17T20:11:21.891Z,21.09
2022-08-17T20:14:10.658Z,21.05
2022-08-17T20:16:38.090Z,21.24
2022-08-17T20:19:10.844Z,21.50
2022-08-17T20:21:48.670Z,21.61
2022-08-17T20:24:22.951Z,21.45
2022-08-17T20:26:59.333Z,21.01
2022-08-17T20:29:40.414Z,20.99
2022-08-17T20:32:20.855Z,20.65
2022-08-17T20:34:48.625Z,20.66
2022-08-17T20:37:15.912Z,20.50
2022-08-17T20:40:09.302Z,20.50
2022-08-17T20:42:37.512Z,20.44
2022-08-17T20:45:26.449Z,20.39
2022-08-17T20:48:27.262Z,20.39
2022-08-17T20:50:53.024Z,20.39
2022-08-17T20:53:57.997Z,20.47
2022-08-17T20:56:43.474Z,20.53
2022-08-17T20:59:25.876Z,20.47
2022-08-17T21:02:18.689Z,20.36
2022-08-17T21:04:47.266Z,20.41
2022-08-17T21:07:42.932Z,20.43
2022-08-17T21:10:26.269Z,20.41
2022-08-17T21:13:13.388Z,20.44
2022-08-17T21:15:53.356Z,20.18
2022-08-17T21:18:38.955Z,20.37
2022-08-17T21:21:21.450Z,20.33
2022-08-17T21:24:10.168Z,20.48
2022-08-17T21:26:58.321Z,20.61
2022-08-17T21:29:31.488Z,20.53
2022-08-17T21:32:03.128Z,20.45
2022-08-17T21:34:43.254Z,20.50
2022-08-17T21:37:19.844Z,20.46
2022-08-17T21:40:14.909Z,20.57
2022-08-17T21:42:55.515Z,20.65
2022-08-17T21:45:28.027Z,20.73
2022-08-17T21:48:14.999Z,20.73
2022-08-17T21:50:45.164Z,20.70
2022-08-17T21:53:23.792Z,20.75
2022-08-17T21:55:53.436Z,20.76
2022-08-17T21:58:32.812Z,20.70
2022-08-17T22:01:26.641Z,20.66
2022-08-17T22:04:11.495Z,20.54
2022-08-17T22:06:41.722Z,20.30
2022-08-17T22:09:22.455Z,20.17
2022-08-17T22:12:03.662Z,19.94
2022-08-17T22:14:53.471Z,19.86
2022-08-17T22:17:25.478Z,20.01
2022-08-17T22:19:57.951Z,20.00
2022-08-17T22:22:29.437Z,19.94
2022-08-17T22:25:07.684Z,19.56
2022-08-17T22:27:45.704Z,19.23
2022-08-17T22:30:42.496Z,19.72
2022-08-17T22:33:41.900Z,20.12
2022-08-17T22:36:31.063Z,20.48
2022-08-17T22:39:40.376Z,21.34
2022-08-17T22:42:14.431Z,21.10
2022-08-17T22:44:51.098Z,20.93
2022-08-17T22:47:18.914Z,20.87
2022-08-17T22:49:53.458Z,20.68
2022-08-17T22:53:01.623Z,20.58
2022-08-17T22:55:50.570Z,20.46
2022-08-17T22:58:42.937Z,20.17
2022-08-17T23:01:33.210Z,19.76
2022-08-17T23:04:11.591Z,19.72
2022-08-17T23:06:43.726Z,19.50
2022-08-17T23:09:10.721Z,19.40
2022-08-17T23:11:51.232Z,19.44
2022-08-17T23:14:22.413Z,19.40
2022-08-17T23:16:53.033Z,19.30
2022-08-17T23:19:21.698Z,19.49
2022-08-17T23:21:50.443Z,19.45
2022-08-17T23:24:25.444Z,19.37
2022-08-17T23:26:53.943Z,18.99
2022-08-17T23:29:21.537Z,18.57
2022-08-17T23:31:50.449Z,18.46
2022-08-17T23:34:18.575Z,18.33
2022-08-17T23:36:50.672Z,18.20
2022-08-17T23:39:24.641Z,18.11
2022-08-17T23:41:59.349Z,18.05
2022-08-17T23:44:28.715Z,18.05
2022-08-17T23:46:56.420Z,18.09
2022-08-17T23:49:25.017Z,18.31
2022-08-17T23:51:55.071Z,18.31
2022-08-17T23:54:33.598Z,18.13
2022-08-17T23:57:02.227Z,18.05
2022-08-17T23:59:29.675Z,18.05
